sensor_id;sensor_type;location;lat;lon;timestamp;temperature;humidity
18998;DHT22;9632;51.018;4.284;2023-04-24T00:02:23;12.10;99.90
18998;DHT22;9632;51.018;4.284;2023-04-24T00:04:49;12.00;99.90
18998;DHT22;9632;51.018;4.284;2023-04-24T00:07:15;12.10;99.90
18998;DHT22;9632;51.018;4.284;2023-04-24T00:09:42;12.10;99.90
18998;DHT22;9632;51.018;4.284;2023-04-24T00:12:10;12.10;99.90
18998;DHT22;9632;51.018;4.284;2023-04-24T00:14:35;12.10;99.90
18998;DHT22;9632;51.018;4.284;2023-04-24T00:17:02;12.20;99.90
18998;DHT22;9632;51.018;4.284;2023-04-24T00:19:28;12.20;99.90
18998;DHT22;9632;51.018;4.284;2023-04-24T00:21:54;12.10;99.90
18998;DHT22;9632;51.018;4.284;2023-04-24T00:24:20;12.10;99.90
18998;DHT22;9632;51.018;4.284;2023-04-24T00:26:46;12.10;99.90
18998;DHT22;9632;51.018;4.284;2023-04-24T00:29:12;12.10;99.90
18998;DHT22;9632;51.018;4.284;2023-04-24T00:31:37;12.00;99.90
18998;DHT22;9632;51.018;4.284;2023-04-24T00:34:03;12.10;99.90
18998;DHT22;9632;51.018;4.284;2023-04-24T00:36:29;12.10;99.90
18998;DHT22;9632;51.018;4.284;2023-04-24T00:38:56;12.10;99.90
18998;DHT22;9632;51.018;4.284;2023-04-24T00:41:24;12.00;99.90
18998;DHT22;9632;51.018;4.284;2023-04-24T00:43:50;12.00;99.90
18998;DHT22;9632;51.018;4.284;2023-04-24T00:46:16;12.10;99.90
18998;DHT22;9632;51.018;4.284;2023-04-24T00:48:43;12.10;99.90
18998;DHT22;9632;51.018;4.284;2023-04-24T00:51:09;12.00;99.90
18998;DHT22;9632;51.018;4.284;2023-04-24T00:53:35;12.00;99.90
18998;DHT22;9632;51.018;4.284;2023-04-24T00:56:01;12.00;99.90
18998;DHT22;9632;51.018;4.284;2023-04-24T00:58:27;12.00;99.90
18998;DHT22;9632;51.018;4.284;2023-04-24T01:00:54;12.10;99.90
18998;DHT22;9632;51.018;4.284;2023-04-24T01:03:22;12.10;99.90
18998;DHT22;9632;51.018;4.284;2023-04-24T01:05:50;12.20;99.90
18998;DHT22;9632;51.018;4.284;2023-04-24T01:08:16;12.10;99.90
18998;DHT22;9632;51.018;4.284;2023-04-24T01:10:44;12.00;99.90
18998;DHT22;9632;51.018;4.284;2023-04-24T01:13:10;12.00;99.90
18998;DHT22;9632;51.018;4.284;2023-04-24T01:15:36;12.10;99.90
18998;DHT22;9632;51.018;4.284;2023-04-24T01:18:02;12.10;99.90
18998;DHT22;9632;51.018;4.284;2023-04-24T01:20:28;12.00;99.90
18998;DHT22;9632;51.018;4.284;2023-04-24T01:22:55;12.00;99.90
18998;DHT22;9632;51.018;4.284;2023-04-24T01:25:23;12.10;99.90
18998;DHT22;9632;51.018;4.284;2023-04-24T01:27:50;12.00;99.90
18998;DHT22;9632;51.018;4.284;2023-04-24T01:30:17;12.00;99.90
18998;DHT22;9632;51.018;4.284;2023-04-24T01:32:43;11.90;99.90
18998;DHT22;9632;51.018;4.284;2023-04-24T01:35:10;11.90;99.90
18998;DHT22;9632;51.018;4.284;2023-04-24T01:37:36;12.00;99.90
18998;DHT22;9632;51.018;4.284;2023-04-24T01:40:06;11.90;99.90
18998;DHT22;9632;51.018;4.284;2023-04-24T01:42:32;11.90;99.90
18998;DHT22;9632;51.018;4.284;2023-04-24T01:44:59;11.90;99.90
18998;DHT22;9632;51.018;4.284;2023-04-24T01:47:27;11.90;99.90
18998;DHT22;9632;51.018;4.284;2023-04-24T01:49:53;11.90;99.90
18998;DHT22;9632;51.018;4.284;2023-04-24T01:52:19;11.90;99.90
18998;DHT22;9632;51.018;4.284;2023-04-24T01:54:45;11.80;99.90
18998;DHT22;9632;51.018;4.284;2023-04-24T01:57:11;11.80;99.90
18998;DHT22;9632;51.018;4.284;2023-04-24T01:59:36;11.80;99.90
18998;DHT22;9632;51.018;4.284;2023-04-24T02:02:03;11.80;99.90
18998;DHT22;9632;51.018;4.284;2023-04-24T02:04:29;11.70;99.90
18998;DHT22;9632;51.018;4.284;2023-04-24T02:06:54;11.70;99.90
18998;DHT22;9632;51.018;4.284;2023-04-24T02:09:20;11.60;99.90
18998;DHT22;9632;51.018;4.284;2023-04-24T02:11:46;11.60;99.90
18998;DHT22;9632;51.018;4.284;2023-04-24T02:14:12;11.50;99.90
18998;DHT22;9632;51.018;4.284;2023-04-24T02:16:37;11.50;99.90
18998;DHT22;9632;51.018;4.284;2023-04-24T02:19:03;11.50;99.90
18998;DHT22;9632;51.018;4.284;2023-04-24T02:21:29;11.40;99.90
18998;DHT22;9632;51.018;4.284;2023-04-24T02:23:56;11.40;99.90
18998;DHT22;9632;51.018;4.284;2023-04-24T02:26:22;11.40;99.90
18998;DHT22;9632;51.018;4.284;2023-04-24T02:28:47;11.40;99.90
18998;DHT22;9632;51.018;4.284;2023-04-24T02:31:14;11.40;99.90
18998;DHT22;9632;51.018;4.284;2023-04-24T02:33:40;11.40;99.90
18998;DHT22;9632;51.018;4.284;2023-04-24T02:36:05;11.40;99.90
18998;DHT22;9632;51.018;4.284;2023-04-24T02:38:31;11.40;99.90
18998;DHT22;9632;51.018;4.284;2023-04-24T02:40:57;11.40;99.90
18998;DHT22;9632;51.018;4.284;2023-04-24T02:43:22;11.40;99.90
18998;DHT22;9632;51.018;4.284;2023-04-24T02:45:48;11.50;99.90
18998;DHT22;9632;51.018;4.284;2023-04-24T02:48:14;11.50;99.90
18998;DHT22;9632;51.018;4.284;2023-04-24T02:50:40;11.50;99.90
18998;DHT22;9632;51.018;4.284;2023-04-24T02:53:06;11.50;99.90
18998;DHT22;9632;51.018;4.284;2023-04-24T02:55:32;11.40;99.90
18998;DHT22;9632;51.018;4.284;2023-04-24T02:57:57;11.40;99.90
18998;DHT22;9632;51.018;4.284;2023-04-24T03:00:23;11.40;99.90
18998;DHT22;9632;51.018;4.284;2023-04-24T03:02:49;11.40;99.90
18998;DHT22;9632;51.018;4.284;2023-04-24T03:05:15;11.40;99.90
18998;DHT22;9632;51.018;4.284;2023-04-24T03:07:41;11.40;99.90
18998;DHT22;9632;51.018;4.284;2023-04-24T03:10:07;11.40;99.90
18998;DHT22;9632;51.018;4.284;2023-04-24T03:12:33;11.40;99.90
18998;DHT22;9632;51.018;4.284;2023-04-24T03:14:59;11.40;99.90
18998;DHT22;9632;51.018;4.284;2023-04-24T03:17:24;11.40;99.90
18998;DHT22;9632;51.018;4.284;2023-04-24T03:19:50;11.40;99.90
18998;DHT22;9632;51.018;4.284;2023-04-24T03:22:16;11.40;99.90
18998;DHT22;9632;51.018;4.284;2023-04-24T03:24:41;11.40;99.90
18998;DHT22;9632;51.018;4.284;2023-04-24T03:27:07;11.40;99.90
18998;DHT22;9632;51.018;4.284;2023-04-24T03:29:33;11.40;99.90
18998;DHT22;9632;51.018;4.284;2023-04-24T03:31:58;11.40;99.90
18998;DHT22;9632;51.018;4.284;2023-04-24T03:34:24;11.40;99.90
18998;DHT22;9632;51.018;4.284;2023-04-24T03:36:50;11.40;99.90
18998;DHT22;9632;51.018;4.284;2023-04-24T03:39:16;11.40;99.90
18998;DHT22;9632;51.018;4.284;2023-04-24T03:41:41;11.30;99.90
18998;DHT22;9632;51.018;4.284;2023-04-24T03:44:07;11.40;99.90
18998;DHT22;9632;51.018;4.284;2023-04-24T03:46:33;11.40;99.90
18998;DHT22;9632;51.018;4.284;2023-04-24T03:48:58;11.40;99.90
18998;DHT22;9632;51.018;4.284;2023-04-24T03:51:24;11.40;99.90
18998;DHT22;9632;51.018;4.284;2023-04-24T03:53:50;11.40;99.90
18998;DHT22;9632;51.018;4.284;2023-04-24T03:56:16;11.40;99.90
18998;DHT22;9632;51.018;4.284;2023-04-24T03:58:42;11.40;99.90
18998;DHT22;9632;51.018;4.284;2023-04-24T04:01:08;11.40;99.90
18998;DHT22;9632;51.018;4.284;2023-04-24T04:03:33;11.40;99.90
18998;DHT22;9632;51.018;4.284;2023-04-24T04:05:59;11.40;99.90
18998;DHT22;9632;51.018;4.284;2023-04-24T04:08:25;11.40;99.90
18998;DHT22;9632;51.018;4.284;2023-04-24T04:10:50;11.40;99.90
18998;DHT22;9632;51.018;4.284;2023-04-24T04:13:16;11.40;99.90
18998;DHT22;9632;51.018;4.284;2023-04-24T04:15:42;11.40;99.90
18998;DHT22;9632;51.018;4.284;2023-04-24T04:18:07;11.40;99.90
18998;DHT22;9632;51.018;4.284;2023-04-24T04:20:34;11.40;99.90
18998;DHT22;9632;51.018;4.284;2023-04-24T04:22:59;11.40;99.90
18998;DHT22;9632;51.018;4.284;2023-04-24T04:25:25;11.40;99.90
18998;DHT22;9632;51.018;4.284;2023-04-24T04:27:51;11.30;99.90
18998;DHT22;9632;51.018;4.284;2023-04-24T04:30:17;11.30;99.90
18998;DHT22;9632;51.018;4.284;2023-04-24T04:32:43;11.30;99.90
18998;DHT22;9632;51.018;4.284;2023-04-24T04:35:09;11.30;99.90
18998;DHT22;9632;51.018;4.284;2023-04-24T04:37:35;11.20;99.90
18998;DHT22;9632;51.018;4.284;2023-04-24T04:40:02;11.20;99.90
18998;DHT22;9632;51.018;4.284;2023-04-24T04:42:37;11.20;99.90
18998;DHT22;9632;51.018;4.284;2023-04-24T04:45:07;11.10;99.90
18998;DHT22;9632;51.018;4.284;2023-04-24T04:47:34;11.10;99.90
18998;DHT22;9632;51.018;4.284;2023-04-24T04:50:00;11.10;99.90
18998;DHT22;9632;51.018;4.284;2023-04-24T04:52:26;11.10;99.90
18998;DHT22;9632;51.018;4.284;2023-04-24T04:54:52;11.10;99.90
18998;DHT22;9632;51.018;4.284;2023-04-24T04:57:17;11.10;99.90
18998;DHT22;9632;51.018;4.284;2023-04-24T04:59:43;11.10;99.90
18998;DHT22;9632;51.018;4.284;2023-04-24T05:02:09;11.10;99.90
18998;DHT22;9632;51.018;4.284;2023-04-24T05:04:35;11.10;99.90
18998;DHT22;9632;51.018;4.284;2023-04-24T05:07:00;11.10;99.90
18998;DHT22;9632;51.018;4.284;2023-04-24T05:09:26;11.00;99.90
18998;DHT22;9632;51.018;4.284;2023-04-24T05:11:53;11.00;99.90
18998;DHT22;9632;51.018;4.284;2023-04-24T05:14:18;11.00;99.90
18998;DHT22;9632;51.018;4.284;2023-04-24T05:16:44;10.90;99.90
18998;DHT22;9632;51.018;4.284;2023-04-24T05:19:10;10.90;99.90
18998;DHT22;9632;51.018;4.284;2023-04-24T05:21:37;10.90;99.90
18998;DHT22;9632;51.018;4.284;2023-04-24T05:24:03;10.90;99.90
18998;DHT22;9632;51.018;4.284;2023-04-24T05:26:29;10.90;99.90
18998;DHT22;9632;51.018;4.284;2023-04-24T05:28:54;10.90;99.90
18998;DHT22;9632;51.018;4.284;2023-04-24T05:31:20;10.90;99.90
18998;DHT22;9632;51.018;4.284;2023-04-24T05:33:46;10.90;99.90
18998;DHT22;9632;51.018;4.284;2023-04-24T05:36:12;10.90;99.90
18998;DHT22;9632;51.018;4.284;2023-04-24T05:38:38;10.90;99.90
18998;DHT22;9632;51.018;4.284;2023-04-24T05:41:03;10.90;99.90
18998;DHT22;9632;51.018;4.284;2023-04-24T05:43:29;10.90;99.90
18998;DHT22;9632;51.018;4.284;2023-04-24T05:45:55;10.90;99.90
18998;DHT22;9632;51.018;4.284;2023-04-24T05:48:21;11.00;99.90
18998;DHT22;9632;51.018;4.284;2023-04-24T05:50:47;11.00;99.90
18998;DHT22;9632;51.018;4.284;2023-04-24T05:53:13;11.00;99.90
18998;DHT22;9632;51.018;4.284;2023-04-24T05:55:39;11.00;99.90
18998;DHT22;9632;51.018;4.284;2023-04-24T05:58:05;11.00;99.90
18998;DHT22;9632;51.018;4.284;2023-04-24T06:00:31;11.00;99.90
18998;DHT22;9632;51.018;4.284;2023-04-24T06:02:58;10.90;99.90
18998;DHT22;9632;51.018;4.284;2023-04-24T06:05:24;10.90;99.90
18998;DHT22;9632;51.018;4.284;2023-04-24T06:07:50;10.90;99.90
18998;DHT22;9632;51.018;4.284;2023-04-24T06:10:16;10.90;99.90
18998;DHT22;9632;51.018;4.284;2023-04-24T06:12:42;10.90;99.90
18998;DHT22;9632;51.018;4.284;2023-04-24T06:15:08;10.90;99.90
18998;DHT22;9632;51.018;4.284;2023-04-24T06:17:34;11.00;99.90
18998;DHT22;9632;51.018;4.284;2023-04-24T06:19:59;10.90;99.90
18998;DHT22;9632;51.018;4.284;2023-04-24T06:22:25;10.90;99.90
18998;DHT22;9632;51.018;4.284;2023-04-24T06:24:51;10.90;99.90
18998;DHT22;9632;51.018;4.284;2023-04-24T06:27:16;10.90;99.90
18998;DHT22;9632;51.018;4.284;2023-04-24T06:29:42;10.90;99.90
18998;DHT22;9632;51.018;4.284;2023-04-24T06:32:07;11.00;99.90
18998;DHT22;9632;51.018;4.284;2023-04-24T06:34:33;11.00;99.90
18998;DHT22;9632;51.018;4.284;2023-04-24T06:37:00;10.90;99.90
18998;DHT22;9632;51.018;4.284;2023-04-24T06:39:26;10.90;99.90
18998;DHT22;9632;51.018;4.284;2023-04-24T06:41:51;10.90;99.90
18998;DHT22;9632;51.018;4.284;2023-04-24T06:44:17;10.90;99.90
18998;DHT22;9632;51.018;4.284;2023-04-24T06:46:43;10.90;99.90
18998;DHT22;9632;51.018;4.284;2023-04-24T06:49:09;10.90;99.90
18998;DHT22;9632;51.018;4.284;2023-04-24T06:51:34;10.90;99.90
18998;DHT22;9632;51.018;4.284;2023-04-24T06:54:00;11.00;99.90
18998;DHT22;9632;51.018;4.284;2023-04-24T06:56:26;11.00;99.90
18998;DHT22;9632;51.018;4.284;2023-04-24T06:58:51;10.90;99.90
18998;DHT22;9632;51.018;4.284;2023-04-24T07:01:17;10.90;99.90
18998;DHT22;9632;51.018;4.284;2023-04-24T07:03:43;11.00;99.90
18998;DHT22;9632;51.018;4.284;2023-04-24T07:06:09;11.00;99.90
18998;DHT22;9632;51.018;4.284;2023-04-24T07:08:38;11.00;99.90
18998;DHT22;9632;51.018;4.284;2023-04-24T07:11:04;11.00;99.90
18998;DHT22;9632;51.018;4.284;2023-04-24T07:13:30;11.10;99.90
18998;DHT22;9632;51.018;4.284;2023-04-24T07:15:55;11.10;99.90
18998;DHT22;9632;51.018;4.284;2023-04-24T07:18:21;11.20;99.90
18998;DHT22;9632;51.018;4.284;2023-04-24T07:20:47;11.20;99.90
18998;DHT22;9632;51.018;4.284;2023-04-24T07:23:15;11.20;99.90
18998;DHT22;9632;51.018;4.284;2023-04-24T07:25:41;11.30;99.90
18998;DHT22;9632;51.018;4.284;2023-04-24T07:28:07;11.30;99.90
18998;DHT22;9632;51.018;4.284;2023-04-24T07:30:32;11.40;99.90
18998;DHT22;9632;51.018;4.284;2023-04-24T07:32:58;11.40;99.90
18998;DHT22;9632;51.018;4.284;2023-04-24T07:35:25;11.50;99.90
18998;DHT22;9632;51.018;4.284;2023-04-24T07:37:54;11.50;99.90
18998;DHT22;9632;51.018;4.284;2023-04-24T07:40:20;11.60;99.90
18998;DHT22;9632;51.018;4.284;2023-04-24T07:42:46;11.60;99.90
18998;DHT22;9632;51.018;4.284;2023-04-24T07:45:14;11.60;99.90
18998;DHT22;9632;51.018;4.284;2023-04-24T07:47:41;11.60;99.90
18998;DHT22;9632;51.018;4.284;2023-04-24T07:50:09;11.60;99.90
18998;DHT22;9632;51.018;4.284;2023-04-24T07:52:35;11.70;99.90
18998;DHT22;9632;51.018;4.284;2023-04-24T07:55:01;11.70;99.90
18998;DHT22;9632;51.018;4.284;2023-04-24T07:57:27;11.80;99.90
18998;DHT22;9632;51.018;4.284;2023-04-24T07:59:54;11.80;99.90
18998;DHT22;9632;51.018;4.284;2023-04-24T08:02:20;11.80;99.90
18998;DHT22;9632;51.018;4.284;2023-04-24T08:04:47;11.80;99.90
18998;DHT22;9632;51.018;4.284;2023-04-24T08:07:12;11.80;99.90
18998;DHT22;9632;51.018;4.284;2023-04-24T08:09:38;11.90;99.90
18998;DHT22;9632;51.018;4.284;2023-04-24T08:12:04;12.00;99.90
18998;DHT22;9632;51.018;4.284;2023-04-24T08:14:30;12.20;99.90
18998;DHT22;9632;51.018;4.284;2023-04-24T08:16:55;12.50;99.90
18998;DHT22;9632;51.018;4.284;2023-04-24T08:19:21;12.60;99.90
18998;DHT22;9632;51.018;4.284;2023-04-24T08:21:47;12.70;99.90
18998;DHT22;9632;51.018;4.284;2023-04-24T08:24:13;12.80;99.90
18998;DHT22;9632;51.018;4.284;2023-04-24T08:26:39;12.90;99.90
18998;DHT22;9632;51.018;4.284;2023-04-24T08:29:05;13.00;99.90
18998;DHT22;9632;51.018;4.284;2023-04-24T08:31:32;13.00;99.90
18998;DHT22;9632;51.018;4.284;2023-04-24T08:33:58;12.90;99.90
18998;DHT22;9632;51.018;4.284;2023-04-24T08:36:25;12.80;99.90
18998;DHT22;9632;51.018;4.284;2023-04-24T08:38:51;12.70;99.90
18998;DHT22;9632;51.018;4.284;2023-04-24T08:41:18;12.60;99.90
18998;DHT22;9632;51.018;4.284;2023-04-24T08:43:46;12.50;99.90
18998;DHT22;9632;51.018;4.284;2023-04-24T08:46:13;12.40;99.90
18998;DHT22;9632;51.018;4.284;2023-04-24T08:48:39;12.30;99.90
18998;DHT22;9632;51.018;4.284;2023-04-24T08:51:07;12.30;99.90
18998;DHT22;9632;51.018;4.284;2023-04-24T08:53:33;12.30;99.90
18998;DHT22;9632;51.018;4.284;2023-04-24T08:56:01;12.30;99.90
18998;DHT22;9632;51.018;4.284;2023-04-24T08:58:27;12.50;99.90
18998;DHT22;9632;51.018;4.284;2023-04-24T09:00:57;12.70;99.90
18998;DHT22;9632;51.018;4.284;2023-04-24T09:03:23;12.90;99.90
18998;DHT22;9632;51.018;4.284;2023-04-24T09:05:49;13.00;99.90
18998;DHT22;9632;51.018;4.284;2023-04-24T09:08:18;13.10;99.90
18998;DHT22;9632;51.018;4.284;2023-04-24T09:10:44;13.20;99.90
18998;DHT22;9632;51.018;4.284;2023-04-24T09:13:10;13.20;99.90
18998;DHT22;9632;51.018;4.284;2023-04-24T09:15:37;13.20;99.90
18998;DHT22;9632;51.018;4.284;2023-04-24T09:18:04;13.20;99.90
18998;DHT22;9632;51.018;4.284;2023-04-24T09:20:31;13.20;99.90
18998;DHT22;9632;51.018;4.284;2023-04-24T09:22:57;13.10;99.90
18998;DHT22;9632;51.018;4.284;2023-04-24T09:25:32;13.10;99.90
18998;DHT22;9632;51.018;4.284;2023-04-24T09:28:02;13.10;99.90
18998;DHT22;9632;51.018;4.284;2023-04-24T09:30:28;13.00;99.90
18998;DHT22;9632;51.018;4.284;2023-04-24T09:33:14;12.90;99.90
18998;DHT22;9632;51.018;4.284;2023-04-24T09:35:41;13.00;99.90
18998;DHT22;9632;51.018;4.284;2023-04-24T09:38:08;13.00;99.90
18998;DHT22;9632;51.018;4.284;2023-04-24T09:40:35;13.00;99.90
18998;DHT22;9632;51.018;4.284;2023-04-24T09:43:02;13.00;99.90
18998;DHT22;9632;51.018;4.284;2023-04-24T09:45:38;12.90;99.90
18998;DHT22;9632;51.018;4.284;2023-04-24T09:48:05;12.80;99.90
18998;DHT22;9632;51.018;4.284;2023-04-24T09:50:32;12.70;99.90
18998;DHT22;9632;51.018;4.284;2023-04-24T09:53:06;12.70;99.90
18998;DHT22;9632;51.018;4.284;2023-04-24T09:55:45;12.70;99.90
18998;DHT22;9632;51.018;4.284;2023-04-24T09:58:11;12.70;99.90
18998;DHT22;9632;51.018;4.284;2023-04-24T10:00:37;12.70;99.90
18998;DHT22;9632;51.018;4.284;2023-04-24T10:03:04;12.70;99.90
18998;DHT22;9632;51.018;4.284;2023-04-24T10:05:34;12.70;99.90
18998;DHT22;9632;51.018;4.284;2023-04-24T10:08:03;12.80;99.90
18998;DHT22;9632;51.018;4.284;2023-04-24T10:10:31;12.70;99.90
18998;DHT22;9632;51.018;4.284;2023-04-24T10:12:57;12.70;99.90
18998;DHT22;9632;51.018;4.284;2023-04-24T10:15:22;12.70;99.90
18998;DHT22;9632;51.018;4.284;2023-04-24T10:17:50;12.70;99.90
18998;DHT22;9632;51.018;4.284;2023-04-24T10:20:24;12.80;99.90
18998;DHT22;9632;51.018;4.284;2023-04-24T10:22:52;12.80;99.90
18998;DHT22;9632;51.018;4.284;2023-04-24T10:25:23;12.90;99.90
18998;DHT22;9632;51.018;4.284;2023-04-24T10:27:50;12.90;99.90
18998;DHT22;9632;51.018;4.284;2023-04-24T10:30:18;12.90;99.90
18998;DHT22;9632;51.018;4.284;2023-04-24T10:32:44;12.80;99.90
18998;DHT22;9632;51.018;4.284;2023-04-24T10:35:12;12.90;99.90
18998;DHT22;9632;51.018;4.284;2023-04-24T10:37:43;13.00;99.90
18998;DHT22;9632;51.018;4.284;2023-04-24T10:40:10;13.10;99.90
18998;DHT22;9632;51.018;4.284;2023-04-24T10:42:40;13.20;99.90
18998;DHT22;9632;51.018;4.284;2023-04-24T10:45:15;13.20;99.90
18998;DHT22;9632;51.018;4.284;2023-04-24T10:47:41;13.30;99.90
18998;DHT22;9632;51.018;4.284;2023-04-24T10:50:10;13.50;99.90
18998;DHT22;9632;51.018;4.284;2023-04-24T10:52:46;13.50;99.90
18998;DHT22;9632;51.018;4.284;2023-04-24T10:55:15;13.50;99.90
18998;DHT22;9632;51.018;4.284;2023-04-24T10:58:04;13.60;99.90
18998;DHT22;9632;51.018;4.284;2023-04-24T11:00:30;13.60;99.90
18998;DHT22;9632;51.018;4.284;2023-04-24T11:02:56;13.60;99.90
18998;DHT22;9632;51.018;4.284;2023-04-24T11:05:49;13.60;99.90
18998;DHT22;9632;51.018;4.284;2023-04-24T11:08:13;13.60;99.90
18998;DHT22;9632;51.018;4.284;2023-04-24T11:10:43;13.60;99.90
18998;DHT22;9632;51.018;4.284;2023-04-24T11:13:09;13.70;99.90
18998;DHT22;9632;51.018;4.284;2023-04-24T11:15:41;13.70;99.90
18998;DHT22;9632;51.018;4.284;2023-04-24T11:18:13;13.80;99.90
18998;DHT22;9632;51.018;4.284;2023-04-24T11:20:43;13.90;99.90
18998;DHT22;9632;51.018;4.284;2023-04-24T11:23:09;14.00;99.90
18998;DHT22;9632;51.018;4.284;2023-04-24T11:25:36;14.20;99.90
18998;DHT22;9632;51.018;4.284;2023-04-24T11:28:04;14.30;99.90
18998;DHT22;9632;51.018;4.284;2023-04-24T11:30:31;14.50;99.90
18998;DHT22;9632;51.018;4.284;2023-04-24T11:33:05;14.60;99.90
18998;DHT22;9632;51.018;4.284;2023-04-24T11:35:35;14.60;99.90
18998;DHT22;9632;51.018;4.284;2023-04-24T11:38:04;14.70;99.90
18998;DHT22;9632;51.018;4.284;2023-04-24T11:40:30;14.70;99.90
18998;DHT22;9632;51.018;4.284;2023-04-24T11:42:56;14.70;99.90
18998;DHT22;9632;51.018;4.284;2023-04-24T11:45:29;14.70;99.90
18998;DHT22;9632;51.018;4.284;2023-04-24T11:47:56;14.60;99.90
18998;DHT22;9632;51.018;4.284;2023-04-24T11:50:24;14.60;99.90
18998;DHT22;9632;51.018;4.284;2023-04-24T11:52:51;14.60;99.90
18998;DHT22;9632;51.018;4.284;2023-04-24T11:57:47;14.60;99.90
18998;DHT22;9632;51.018;4.284;2023-04-24T12:02:42;14.60;99.90
18998;DHT22;9632;51.018;4.284;2023-04-24T12:05:08;14.60;99.90
18998;DHT22;9632;51.018;4.284;2023-04-24T12:07:42;14.60;99.90
18998;DHT22;9632;51.018;4.284;2023-04-24T12:10:08;14.60;99.90
18998;DHT22;9632;51.018;4.284;2023-04-24T12:12:34;14.70;99.90
18998;DHT22;9632;51.018;4.284;2023-04-24T12:15:01;14.60;99.90
18998;DHT22;9632;51.018;4.284;2023-04-24T12:17:33;14.60;99.90
18998;DHT22;9632;51.018;4.284;2023-04-24T12:20:06;14.60;99.90
18998;DHT22;9632;51.018;4.284;2023-04-24T12:22:53;14.60;99.90
18998;DHT22;9632;51.018;4.284;2023-04-24T12:25:30;14.50;99.90
18998;DHT22;9632;51.018;4.284;2023-04-24T12:30:35;14.50;99.90
18998;DHT22;9632;51.018;4.284;2023-04-24T12:33:02;14.40;99.90
18998;DHT22;9632;51.018;4.284;2023-04-24T12:35:31;14.50;99.90
18998;DHT22;9632;51.018;4.284;2023-04-24T12:38:15;14.60;99.90
18998;DHT22;9632;51.018;4.284;2023-04-24T12:40:41;14.70;99.90
18998;DHT22;9632;51.018;4.284;2023-04-24T12:43:18;14.70;99.90
18998;DHT22;9632;51.018;4.284;2023-04-24T12:45:45;14.80;99.90
18998;DHT22;9632;51.018;4.284;2023-04-24T12:48:11;14.80;99.90
18998;DHT22;9632;51.018;4.284;2023-04-24T12:50:37;14.80;99.90
18998;DHT22;9632;51.018;4.284;2023-04-24T12:53:03;15.00;99.90
18998;DHT22;9632;51.018;4.284;2023-04-24T12:55:29;15.00;99.90
18998;DHT22;9632;51.018;4.284;2023-04-24T12:57:54;15.10;99.90
18998;DHT22;9632;51.018;4.284;2023-04-24T13:00:21;15.10;99.90
18998;DHT22;9632;51.018;4.284;2023-04-24T13:02:47;15.20;99.90
18998;DHT22;9632;51.018;4.284;2023-04-24T13:05:13;15.20;99.90
18998;DHT22;9632;51.018;4.284;2023-04-24T13:07:39;15.20;99.90
18998;DHT22;9632;51.018;4.284;2023-04-24T13:10:05;15.20;99.90
18998;DHT22;9632;51.018;4.284;2023-04-24T13:12:32;15.30;99.90
18998;DHT22;9632;51.018;4.284;2023-04-24T13:14:57;15.30;99.90
18998;DHT22;9632;51.018;4.284;2023-04-24T13:17:24;15.20;99.90
18998;DHT22;9632;51.018;4.284;2023-04-24T13:19:50;15.30;99.90
18998;DHT22;9632;51.018;4.284;2023-04-24T13:22:17;15.30;99.90
18998;DHT22;9632;51.018;4.284;2023-04-24T13:24:44;15.30;99.90
18998;DHT22;9632;51.018;4.284;2023-04-24T13:27:10;15.30;99.90
18998;DHT22;9632;51.018;4.284;2023-04-24T13:29:36;15.30;99.90
18998;DHT22;9632;51.018;4.284;2023-04-24T13:32:02;15.20;99.90
18998;DHT22;9632;51.018;4.284;2023-04-24T13:34:28;15.20;99.90
18998;DHT22;9632;51.018;4.284;2023-04-24T13:36:55;15.20;99.90
18998;DHT22;9632;51.018;4.284;2023-04-24T13:39:22;15.30;99.90
18998;DHT22;9632;51.018;4.284;2023-04-24T13:41:48;15.30;99.90
18998;DHT22;9632;51.018;4.284;2023-04-24T13:44:15;15.30;99.90
18998;DHT22;9632;51.018;4.284;2023-04-24T13:46:42;15.40;99.90
18998;DHT22;9632;51.018;4.284;2023-04-24T13:49:09;15.50;99.90
18998;DHT22;9632;51.018;4.284;2023-04-24T13:51:35;15.50;99.90
18998;DHT22;9632;51.018;4.284;2023-04-24T13:54:01;15.40;99.90
18998;DHT22;9632;51.018;4.284;2023-04-24T13:56:27;15.40;99.90
18998;DHT22;9632;51.018;4.284;2023-04-24T13:58:52;15.30;99.90
18998;DHT22;9632;51.018;4.284;2023-04-24T14:01:19;15.30;99.90
18998;DHT22;9632;51.018;4.284;2023-04-24T14:03:49;15.40;99.90
18998;DHT22;9632;51.018;4.284;2023-04-24T14:06:15;15.30;99.90
18998;DHT22;9632;51.018;4.284;2023-04-24T14:08:41;15.40;99.90
18998;DHT22;9632;51.018;4.284;2023-04-24T14:11:06;15.40;99.90
18998;DHT22;9632;51.018;4.284;2023-04-24T14:13:32;15.40;99.90
18998;DHT22;9632;51.018;4.284;2023-04-24T14:15:58;15.40;99.90
18998;DHT22;9632;51.018;4.284;2023-04-24T14:18:23;15.40;99.90
18998;DHT22;9632;51.018;4.284;2023-04-24T14:20:49;15.30;99.90
18998;DHT22;9632;51.018;4.284;2023-04-24T14:23:15;15.30;99.90
18998;DHT22;9632;51.018;4.284;2023-04-24T14:25:41;15.30;99.90
18998;DHT22;9632;51.018;4.284;2023-04-24T14:28:06;15.30;99.90
18998;DHT22;9632;51.018;4.284;2023-04-24T14:30:32;15.40;99.90
18998;DHT22;9632;51.018;4.284;2023-04-24T14:32:58;15.50;99.90
18998;DHT22;9632;51.018;4.284;2023-04-24T14:35:24;15.50;99.90
18998;DHT22;9632;51.018;4.284;2023-04-24T14:37:49;15.60;99.90
18998;DHT22;9632;51.018;4.284;2023-04-24T14:40:15;15.50;99.90
18998;DHT22;9632;51.018;4.284;2023-04-24T14:42:41;15.50;99.90
18998;DHT22;9632;51.018;4.284;2023-04-24T14:45:07;15.50;99.90
18998;DHT22;9632;51.018;4.284;2023-04-24T14:47:33;15.50;99.90
18998;DHT22;9632;51.018;4.284;2023-04-24T14:49:59;15.50;99.90
18998;DHT22;9632;51.018;4.284;2023-04-24T14:52:25;15.40;99.90
18998;DHT22;9632;51.018;4.284;2023-04-24T14:54:50;15.40;99.90
18998;DHT22;9632;51.018;4.284;2023-04-24T14:57:16;15.30;99.90
18998;DHT22;9632;51.018;4.284;2023-04-24T14:59:42;15.20;99.90
18998;DHT22;9632;51.018;4.284;2023-04-24T15:02:07;15.20;99.90
18998;DHT22;9632;51.018;4.284;2023-04-24T15:04:33;15.20;99.90
18998;DHT22;9632;51.018;4.284;2023-04-24T15:06:58;15.10;99.90
18998;DHT22;9632;51.018;4.284;2023-04-24T15:09:24;15.00;99.90
18998;DHT22;9632;51.018;4.284;2023-04-24T15:11:51;15.00;99.90
18998;DHT22;9632;51.018;4.284;2023-04-24T15:14:18;15.00;99.90
18998;DHT22;9632;51.018;4.284;2023-04-24T15:16:43;15.00;99.90
18998;DHT22;9632;51.018;4.284;2023-04-24T15:19:09;15.00;99.90
18998;DHT22;9632;51.018;4.284;2023-04-24T15:21:37;15.00;99.90
18998;DHT22;9632;51.018;4.284;2023-04-24T15:24:04;15.00;99.90
18998;DHT22;9632;51.018;4.284;2023-04-24T15:26:30;14.90;99.90
18998;DHT22;9632;51.018;4.284;2023-04-24T15:28:56;14.90;99.90
18998;DHT22;9632;51.018;4.284;2023-04-24T15:31:21;14.90;99.90
18998;DHT22;9632;51.018;4.284;2023-04-24T15:33:51;14.80;99.90
18998;DHT22;9632;51.018;4.284;2023-04-24T15:36:17;14.80;99.90
18998;DHT22;9632;51.018;4.284;2023-04-24T15:38:44;14.80;99.90
18998;DHT22;9632;51.018;4.284;2023-04-24T15:41:10;14.70;99.90
18998;DHT22;9632;51.018;4.284;2023-04-24T15:43:36;14.70;99.90
18998;DHT22;9632;51.018;4.284;2023-04-24T15:46:04;14.80;99.90
18998;DHT22;9632;51.018;4.284;2023-04-24T15:48:31;14.80;99.90
18998;DHT22;9632;51.018;4.284;2023-04-24T15:50:56;14.90;99.90